Weather at South Pole Station Airport

Public forecast

Using degrees Celsius for public forecast. Weather courtesy of forecast.io.

Current aviation weather report (METAR) for South Pole Station Airport

Report is more than 2 hours old.

2024/05/29 17:50 (retrieved 6 hours ago)

NZSP 291750Z 36019KT 0300 BLSN FEW000 SCT020 M60/ A2861 RMK PK WND 36027/1749 BLSN FEW000 CLN AIR 35019KT ALL WNDS GRID

Closest aviation forecast (TAF) to South Pole Station Airport

Closest forecast is Malvinas Argentinas Airport, 2,110.6 nm (3,908.8 km) WNW.

2024/05/29 18:00 (retrieved 6 hours ago)

TAF SAWH 291700Z 2918/3018 23015KT 9999 DZ BKN020 OVC050 TX06/3018Z TNM06/3010Z BECMG 3008/3010 VRB05KT 9999 VCDZ SCT030 BECMG 3012/3014 CAVOK